Time;durP1;ratioP1;P1;durP2;ratioP2;P2;SDS_P1;SDS_P2;PMS_P1;PMS_P2;Temp;Humidity;BMP_temperature;BMP_pressure;BME280_temperature;BME280_humidity;BME280_pressure;Samples;Min_cycle;Max_cycle;Signal;HPM_P1;HPM_P2
2022/02/09 00:07:50;;;;;;;9.90;4.30;;;;;;;0.02;100.00;95467.34;5010952;28;20502;-76
2022/02/09 00:10:16;;;;;;;9.75;4.30;;;;;;;0.02;100.00;95457.19;4995029;28;20459;-76
2022/02/09 00:15:39;;;;;;;7.40;4.47;;;;;;;-0.07;100.00;95446.66;5010576;28;20113;-76
2022/02/09 00:21:03;;;;;;;8.23;4.47;;;;;;;-0.23;100.00;95456.16;5010738;28;20022;-77
2022/02/09 00:31:42;;;;;;;8.43;5.15;;;;;;;-0.64;100.00;95455.25;5008286;28;20393;-76
2022/02/09 00:42:30;;;;;;;9.85;5.25;;;;;;;-0.69;100.00;95472.50;5009923;28;20084;-76
2022/02/09 01:57:17;;;;;;;11.48;7.78;;;;;;;-0.78;100.00;95486.59;5006931;28;20068;-76
2022/02/09 01:59:46;;;;;;;19.33;7.72;;;;;;;-0.75;100.00;95491.50;4991484;28;20025;-75
2022/02/09 02:02:12;;;;;;;15.50;7.25;;;;;;;-0.67;100.00;95481.69;5007119;28;20083;-76
2022/02/09 02:04:39;;;;;;;12.30;6.68;;;;;;;-0.61;100.00;95480.53;5006529;28;20030;-76
2022/02/09 02:07:11;;;;;;;18.40;7.07;;;;;;;-0.57;100.00;95477.69;5007577;28;20029;-75
2022/02/09 02:09:38;;;;;;;23.40;7.55;;;;;;;-0.56;100.00;95461.53;5006292;28;20075;-76
2022/02/09 02:12:12;;;;;;;14.20;6.60;;;;;;;-0.54;100.00;95472.41;5008850;28;20460;-76
2022/02/09 02:14:49;;;;;;;10.88;6.32;;;;;;;-0.48;100.00;95478.88;5006461;28;20037;-76
2022/02/09 02:19:58;;;;;;;8.65;5.68;;;;;;;-0.37;100.00;95480.78;5008775;28;20509;-75
2022/02/09 02:22:46;;;;;;;12.73;5.70;;;;;;;-0.39;100.00;95485.16;5007418;28;20117;-76
2022/02/09 02:33:48;;;;;;;12.13;6.95;;;;;;;-0.54;100.00;95499.56;5007684;28;20037;-75
2022/02/09 02:36:33;;;;;;;15.65;5.80;;;;;;;-0.49;100.00;95517.13;5005931;28;20049;-75
2022/02/09 03:11:37;;;;;;;15.90;6.47;;;;;;;0.31;100.00;95517.31;5005703;28;20021;-76
2022/02/09 03:14:13;;;;;;;16.35;7.32;;;;;;;0.33;100.00;95523.94;5007295;28;20041;-76
2022/02/09 03:16:44;;;;;;;11.50;5.93;;;;;;;0.32;100.00;95524.81;5010320;28;20034;-76
2022/02/09 03:24:35;;;;;;;14.75;7.13;;;;;;;0.34;100.00;95527.28;5009657;28;20038;-76
2022/02/09 03:46:53;;;;;;;18.60;12.93;;;;;;;0.78;100.00;95514.31;5010832;28;20040;-76
2022/02/09 03:49:00;;;;;;;21.88;11.45;;;;;;;0.82;100.00;95510.66;5009147;28;20026;-75
2022/02/09 03:59:15;;;;;;;18.58;10.68;;;;;;;0.89;100.00;95511.91;5009788;28;20493;-76
2022/02/09 04:01:43;;;;;;;15.75;9.98;;;;;;;0.90;100.00;95503.34;5010468;28;20025;-75
2022/02/09 04:04:08;;;;;;;26.85;9.82;;;;;;;0.91;100.00;95515.97;5011828;28;20029;-76
2022/02/09 04:06:36;;;;;;;24.33;15.35;;;;;;;0.97;100.00;95514.75;5008017;28;20026;-75
2022/02/09 04:09:06;;;;;;;22.05;9.60;;;;;;;0.94;100.00;95522.59;5010286;28;20151;-75
2022/02/09 04:11:41;;;;;;;16.48;8.77;;;;;;;0.91;100.00;95510.88;4992194;28;20396;-75
2022/02/09 04:14:21;;;;;;;12.82;8.57;;;;;;;0.96;100.00;95515.69;4994823;28;20037;-76
2022/02/09 04:16:59;;;;;;;13.20;8.68;;;;;;;0.96;100.00;95516.47;5011147;28;20044;-76
2022/02/09 04:19:50;;;;;;;13.10;8.40;;;;;;;1.03;100.00;95509.25;4993532;28;20033;-75
2022/02/09 04:46:33;;;;;;;9.85;6.07;;;;;;;1.26;100.00;95498.38;5008185;28;20034;-76
2022/02/09 05:25:50;;;;;;;8.07;6.28;;;;;;;1.36;100.00;95532.56;5006744;28;20033;-75
2022/02/09 05:28:18;;;;;;;10.35;6.10;;;;;;;1.42;100.00;95534.72;4987191;28;20023;-76
2022/02/09 05:30:51;;;;;;;9.13;6.18;;;;;;;1.42;100.00;95534.72;5004635;28;20506;-75
2022/02/09 05:33:16;;;;;;;8.25;5.80;;;;;;;1.42;100.00;95531.34;4986761;28;20053;-75
2022/02/09 05:35:43;;;;;;;13.65;6.57;;;;;;;1.45;100.00;95538.78;4987104;28;20499;-75
2022/02/09 05:38:08;;;;;;;9.90;6.80;;;;;;;1.46;100.00;95543.81;4989805;28;20037;-75
2022/02/09 05:40:34;;;;;;;11.43;6.53;;;;;;;1.50;100.00;95532.50;5028459;28;20018;-76
2022/02/09 05:42:59;;;;;;;8.60;6.78;;;;;;;1.47;100.00;95530.13;5026743;28;20025;-75
2022/02/09 05:45:31;;;;;;;7.97;6.25;;;;;;;1.57;100.00;95536.25;5025679;28;20030;-76
2022/02/09 05:53:15;;;;;;;8.32;5.95;;;;;;;1.66;100.00;95550.16;5027595;28;20541;-77
2022/02/09 05:58:14;;;;;;;9.20;6.88;;;;;;;1.65;100.00;95548.50;5026516;28;20494;-75
2022/02/09 06:00:47;;;;;;;8.88;6.25;;;;;;;1.75;100.00;95559.72;5026953;28;20033;-75
2022/02/09 06:03:13;;;;;;;8.98;6.03;;;;;;;1.71;100.00;95558.31;5025516;28;20037;-76
2022/02/09 06:05:39;;;;;;;7.00;6.28;;;;;;;1.75;100.00;95564.84;5009506;28;20033;-75
2022/02/09 06:08:04;;;;;;;11.60;6.55;;;;;;;1.75;100.00;95562.28;5008720;28;20040;-76
2022/02/09 06:10:32;;;;;;;7.07;5.82;;;;;;;1.75;100.00;95557.19;5027067;28;20111;-76
2022/02/09 06:13:16;;;;;;;9.80;6.35;;;;;;;1.79;100.00;95561.16;5025717;28;20021;-76
2022/02/09 06:19:40;;;;;;;10.70;6.38;;;;;;;1.81;100.00;95561.88;5016389;28;20030;-76
2022/02/09 06:21:12;;;;;;;8.30;7.15;;;;;;;1.79;100.00;95560.34;5005958;28;20406;-76
2022/02/09 06:23:38;;;;;;;9.48;7.20;;;;;;;1.77;100.00;95567.28;4990634;28;20427;-76
2022/02/09 06:26:05;;;;;;;12.82;6.97;;;;;;;1.81;100.00;95566.16;5006687;28;20413;-76
2022/02/09 06:28:30;;;;;;;6.85;6.15;;;;;;;1.88;100.00;95560.53;4989679;28;20080;-75
2022/02/09 06:30:57;;;;;;;11.57;7.35;;;;;;;1.79;100.00;95562.91;4990616;28;20026;-76
2022/02/09 06:33:22;;;;;;;9.18;6.60;;;;;;;1.89;100.00;95576.69;4988762;28;20073;-76
2022/02/09 06:35:49;;;;;;;16.90;7.00;;;;;;;1.94;100.00;95572.06;5038833;28;20440;-76
2022/02/09 06:38:16;;;;;;;7.88;6.70;;;;;;;1.87;100.00;95568.28;5006247;28;20029;-76
2022/02/09 06:40:44;;;;;;;7.40;6.65;;;;;;;1.93;100.00;95583.19;4990588;28;20586;-76
2022/02/09 06:43:10;;;;;;;9.18;6.82;;;;;;;1.97;100.00;95572.69;5005011;28;20077;-76
2022/02/09 06:45:39;;;;;;;7.50;6.75;;;;;;;1.99;100.00;95582.81;5005753;28;20560;-76
2022/02/09 06:48:12;;;;;;;7.53;6.15;;;;;;;2.13;100.00;95583.50;5005864;28;20116;-78
2022/02/09 06:50:41;;;;;;;7.90;6.57;;;;;;;2.12;100.00;95573.38;5004704;28;20038;-76
2022/02/09 06:55:54;;;;;;;11.10;6.63;;;;;;;2.25;100.00;95589.50;5004290;28;20334;-77
2022/02/09 06:58:31;;;;;;;12.05;6.82;;;;;;;2.15;100.00;95592.81;4987194;28;20122;-76
2022/02/09 07:03:26;;;;;;;8.63;6.45;;;;;;;2.21;100.00;95595.75;5018048;28;20045;-75
2022/02/09 07:05:52;;;;;;;12.07;6.35;;;;;;;2.50;100.00;95593.78;5041763;28;20033;-76
2022/02/09 07:08:18;;;;;;;9.00;7.15;;;;;;;2.40;100.00;95592.75;5033101;28;20478;-76
2022/02/09 07:10:43;;;;;;;9.32;7.55;;;;;;;2.29;100.00;95590.13;5042668;28;20021;-76
2022/02/09 07:13:09;;;;;;;11.43;7.32;;;;;;;2.36;100.00;95597.25;5045623;28;20481;-76
2022/02/09 07:15:38;;;;;;;9.07;7.05;;;;;;;2.31;100.00;95601.06;5046048;28;20025;-76
2022/02/09 07:18:08;;;;;;;11.18;6.60;;;;;;;2.35;100.00;95598.19;5045533;28;20485;-76
2022/02/09 07:20:44;;;;;;;;;;;;;;;2.44;100.00;95594.19;5047692;28;20029;-76
2022/02/09 07:23:19;;;;;;;9.10;7.25;;;;;;;2.60;100.00;95600.66;5046756;28;19912;-76
2022/02/09 07:25:49;;;;;;;7.85;6.82;;;;;;;2.31;100.00;95599.31;5031146;28;20032;-76
2022/02/09 07:28:15;;;;;;;8.60;6.80;;;;;;;2.51;100.00;95601.31;5047647;28;20117;-76
2022/02/09 07:30:43;;;;;;;9.52;7.13;;;;;;;2.56;100.00;95604.38;5039547;28;20513;-77
2022/02/09 07:33:09;;;;;;;11.73;6.97;;;;;;;2.38;100.00;95605.63;5030824;28;20056;-77
2022/02/09 07:35:38;;;;;;;9.40;7.13;;;;;;;2.31;100.00;95604.41;5034745;28;20082;-77
2022/02/09 07:38:04;;;;;;;9.70;7.07;;;;;;;2.44;100.00;95612.09;5023985;28;20039;-76
2022/02/09 07:40:29;;;;;;;11.18;6.82;;;;;;;2.39;100.00;95609.84;5021168;28;20033;-76
2022/02/09 07:43:00;;;;;;;8.40;6.68;;;;;;;2.57;100.00;95610.28;5043892;28;20131;-76
2022/02/09 07:53:12;;;;;;;9.23;8.30;;;;;;;3.07;100.00;95607.59;5039974;28;20037;-76
2022/02/09 07:55:38;;;;;;;11.95;8.00;;;;;;;2.77;100.00;95601.25;5032062;28;20028;-76
2022/02/09 07:58:04;;;;;;;9.38;7.13;;;;;;;3.15;100.00;95607.00;5042701;28;20036;-76
2022/02/09 08:00:31;;;;;;;8.80;7.88;;;;;;;3.29;100.00;95603.47;5043179;28;20024;-76
2022/02/09 08:02:57;;;;;;;13.88;7.75;;;;;;;3.31;100.00;95606.75;4993162;28;20053;-76
2022/02/09 08:05:23;;;;;;;12.52;7.60;;;;;;;3.29;100.00;95603.47;5008133;28;20109;-76
2022/02/09 08:07:48;;;;;;;11.75;7.40;;;;;;;3.26;100.00;95601.97;5008531;28;20054;-75
2022/02/09 08:10:25;;;;;;;8.95;6.47;;;;;;;3.45;100.00;95609.94;5007811;28;20099;-75
2022/02/09 08:33:40;;;;;;;7.35;4.85;;;;;;;4.82;100.00;95586.75;5026180;28;20192;-76
2022/02/09 08:36:05;;;;;;;6.70;4.45;;;;;;;5.35;100.00;95591.00;5025828;28;20112;-76
2022/02/09 08:38:31;;;;;;;6.20;3.90;;;;;;;8.11;88.80;95574.81;5027736;28;20025;-76
2022/02/09 08:40:57;;;;;;;9.85;3.78;;;;;;;7.74;81.44;95572.16;5012216;28;20082;-75
2022/02/09 08:43:23;;;;;;;4.57;3.72;;;;;;;6.20;87.81;95581.41;5010263;28;20076;-75
2022/02/09 08:45:49;;;;;;;4.82;3.45;;;;;;;11.16;67.13;95574.94;5027718;28;20072;-75
2022/02/09 08:48:19;;;;;;;9.57;4.10;;;;;;;12.54;53.85;95570.53;5025785;28;20049;-75
2022/02/09 08:50:45;;;;;;;5.57;3.30;;;;;;;14.35;48.59;95558.66;5026491;28;20057;-75
2022/02/09 08:53:10;;;;;;;4.47;3.50;;;;;;;14.97;45.87;95567.69;5023017;28;20456;-76
2022/02/09 08:55:37;;;;;;;4.80;3.35;;;;;;;15.64;43.82;95570.06;5027008;28;20112;-75
2022/02/09 08:58:04;;;;;;;4.35;3.38;;;;;;;15.53;44.55;95574.00;5007854;28;20021;-75
2022/02/09 09:00:34;;;;;;;5.22;3.33;;;;;;;15.87;42.99;95569.88;5010100;28;20021;-75
2022/02/09 09:08:48;;;;;;;3.95;3.55;;;;;;;15.15;43.31;95583.81;4987422;28;20063;-75
2022/02/09 10:33:55;;;;;;;5.30;2.72;;;;;;;11.38;57.70;95556.19;5024768;28;20055;-75
2022/02/09 10:36:21;;;;;;;7.57;2.90;;;;;;;12.21;54.87;95553.41;5024881;28;20044;-76
2022/02/09 10:39:03;;;;;;;4.03;2.90;;;;;;;9.50;63.87;95557.19;5008984;28;20183;-75
2022/02/09 10:41:34;;;;;;;5.35;3.50;;;;;;;10.29;63.36;95558.88;5006129;28;20048;-75
2022/02/09 10:44:10;;;;;;;3.20;2.60;;;;;;;9.47;67.58;95554.09;5020450;28;20514;-75
2022/02/09 10:46:52;;;;;;;3.65;2.75;;;;;;;9.97;65.67;95555.13;5000360;28;20026;-75
2022/02/09 10:49:20;;;;;;;7.25;2.85;;;;;;;9.61;66.58;95545.81;5007172;28;20037;-77
2022/02/09 10:54:21;;;;;;;7.78;3.42;;;;;;;8.87;71.67;95559.00;5007175;28;20033;-75
2022/02/09 10:56:51;;;;;;;5.68;3.67;;;;;;;8.64;71.71;95552.59;5021180;28;20028;-75
2022/02/09 10:59:20;;;;;;;3.97;3.03;;;;;;;8.82;71.61;95552.66;5008515;28;20033;-75
2022/02/09 11:01:45;;;;;;;21.30;4.68;;;;;;;8.25;73.32;95548.56;5024996;28;20089;-76
2022/02/09 11:04:13;;;;;;;5.85;3.03;;;;;;;8.51;74.78;95559.09;5026148;28;20509;-75
2022/02/09 11:06:42;;;;;;;5.93;3.30;;;;;;;8.01;77.50;95543.88;5032926;28;20038;-75
2022/02/09 11:09:11;;;;;;;3.53;3.20;;;;;;;8.51;72.39;95557.28;5017673;28;20467;-76
2022/02/09 11:11:41;;;;;;;4.60;3.30;;;;;;;8.35;74.43;95551.94;5008035;28;20068;-75
2022/02/09 11:14:13;;;;;;;;;;;;;;;8.27;74.47;95544.06;5027112;28;20030;-76
2022/02/09 11:16:39;;;;;;;6.05;3.47;;;;;;;7.63;79.53;95552.50;5023157;28;19913;-75
2022/02/09 11:19:05;;;;;;;3.42;2.72;;;;;;;7.30;79.96;95556.34;5025376;28;20025;-76
2022/02/09 11:21:34;;;;;;;3.42;2.72;;;;;;;7.46;81.08;95557.53;5031057;28;20035;-77
2022/02/09 11:24:08;;;;;;;6.68;3.75;;;;;;;7.24;83.42;95546.56;5017987;28;20057;-78
2022/02/09 11:29:39;;;;;;;2.92;2.60;;;;;;;7.30;83.21;95543.44;5018351;28;20042;-76
2022/02/09 11:32:09;;;;;;;6.00;3.15;;;;;;;7.11;83.48;95547.78;5020723;28;20041;-76
2022/02/09 11:37:32;;;;;;;4.38;3.45;;;;;;;6.81;86.88;95551.25;5008455;28;20550;-76
2022/02/09 11:40:01;;;;;;;9.05;4.75;;;;;;;6.69;88.46;95554.91;5010349;28;20414;-76
2022/02/09 11:42:58;;;;;;;5.15;3.25;;;;;;;6.51;90.37;95559.06;5025064;28;20454;-75
2022/02/09 11:46:19;;;;;;;3.00;2.70;;;;;;;6.62;90.47;95569.22;5010873;28;20487;-76
2022/02/09 12:00:13;;;;;;;4.43;2.90;;;;;;;6.36;93.11;95564.56;5023901;28;20025;-76
2022/02/09 12:11:41;;;;;;;4.68;3.70;;;;;;;6.25;96.00;95566.41;5028039;28;19986;-76
2022/02/09 12:19:29;;;;;;;4.38;3.42;;;;;;;6.24;96.88;95567.34;5030017;28;20033;-76
2022/02/09 12:22:04;;;;;;;4.30;3.17;;;;;;;6.28;96.19;95568.72;5013520;28;20037;-75
2022/02/09 12:24:32;;;;;;;8.45;3.75;;;;;;;6.08;97.44;95572.16;5028176;28;20080;-75
2022/02/09 12:27:15;;;;;;;7.95;2.95;;;;;;;5.69;99.99;95579.59;5025808;28;20060;-75
2022/02/09 12:29:42;;;;;;;5.53;3.60;;;;;;;5.92;99.78;95577.75;5009933;28;20083;-74
2022/02/09 12:32:14;;;;;;;4.70;3.80;;;;;;;5.71;100.00;95590.59;5027888;28;20040;-75
2022/02/09 12:34:44;;;;;;;4.78;3.35;;;;;;;5.83;100.00;95581.88;5027545;28;20055;-75
2022/02/09 12:37:14;;;;;;;5.45;3.58;;;;;;;5.80;100.00;95583.88;5027357;28;20045;-75
2022/02/09 12:39:55;;;;;;;3.63;3.20;;;;;;;5.72;100.00;95592.19;5029473;28;20100;-75
2022/02/09 12:42:21;;;;;;;5.15;3.80;;;;;;;6.07;100.00;95591.09;5009906;28;20033;-75
2022/02/09 12:45:02;;;;;;;6.15;3.67;;;;;;;5.72;100.00;95591.38;5027722;28;20029;-76
2022/02/09 12:47:30;;;;;;;3.88;3.53;;;;;;;5.69;100.00;95596.78;5025149;28;20658;-75
2022/02/09 12:49:57;;;;;;;5.13;3.47;;;;;;;5.50;100.00;95594.88;5026046;28;20029;-76
2022/02/09 12:52:28;;;;;;;4.78;3.50;;;;;;;5.44;100.00;95586.84;5034768;28;20506;-76
2022/02/09 12:55:18;;;;;;;3.45;3.13;;;;;;;5.53;100.00;95592.06;5010059;28;20037;-75
2022/02/09 12:57:50;;;;;;;4.23;3.33;;;;;;;5.68;100.00;95580.53;5024894;28;20041;-75
2022/02/09 13:00:43;;;;;;;9.25;3.35;;;;;;;5.56;100.00;95583.28;5021094;28;20684;-75
2022/02/09 13:03:19;;;;;;;4.40;3.50;;;;;;;5.66;100.00;95597.84;5006021;28;20046;-75
2022/02/09 13:05:51;;;;;;;5.30;4.43;;;;;;;5.63;100.00;95592.94;5002587;28;20018;-75
2022/02/09 13:08:19;;;;;;;5.65;4.05;;;;;;;5.59;100.00;95588.19;5021994;28;20033;-75
2022/02/09 13:10:45;;;;;;;4.03;3.22;;;;;;;5.61;100.00;95588.88;5020403;28;20399;-75
2022/02/09 13:13:15;;;;;;;4.28;3.25;;;;;;;5.52;100.00;95592.22;5004526;28;20423;-75
2022/02/09 13:15:48;;;;;;;3.92;3.58;;;;;;;5.66;100.00;95586.75;5009151;28;20026;-74
2022/02/09 13:19:55;;;;;;;4.40;3.53;;;;;;;5.75;100.00;95591.94;5010204;28;20029;-75
2022/02/09 14:11:41;;;;;;;5.00;4.60;;;;;;;5.23;100.00;95622.78;5022301;28;20080;-75
2022/02/09 14:23:31;;;;;;;7.03;6.18;;;;;;;4.75;100.00;95628.22;5026268;28;20032;-76
2022/02/09 14:57:17;;;;;;;11.88;10.88;;;;;;;4.42;100.00;95660.78;5023643;28;20125;-76
2022/02/09 15:02:14;;;;;;;12.88;11.57;;;;;;;4.36;100.00;95658.69;5014520;28;20616;-76
2022/02/09 15:09:51;;;;;;;12.75;11.45;;;;;;;4.24;100.00;95656.09;5020542;28;20095;-75
2022/02/09 15:17:49;;;;;;;13.65;12.20;;;;;;;4.33;100.00;95659.75;5020788;28;20116;-76
2022/02/09 15:20:41;;;;;;;14.13;12.77;;;;;;;4.30;100.00;95671.97;5014716;28;20410;-75
2022/02/09 15:23:08;;;;;;;14.85;12.60;;;;;;;4.29;100.00;95668.59;5023246;28;20430;-76
2022/02/09 15:25:35;;;;;;;17.25;13.75;;;;;;;4.31;100.00;95676.97;5022431;28;20886;-76
2022/02/09 15:28:02;;;;;;;16.67;14.98;;;;;;;4.24;100.00;95670.66;5023377;28;20171;-76
2022/02/09 15:30:33;;;;;;;15.07;13.55;;;;;;;4.19;100.00;95677.88;5025795;28;20872;-76
2022/02/09 15:33:00;;;;;;;17.25;14.38;;;;;;;4.08;100.00;95676.09;5026398;28;20026;-77
2022/02/09 15:35:33;;;;;;;15.25;13.82;;;;;;;4.03;100.00;95672.25;5007010;28;20040;-76
2022/02/09 15:38:08;;;;;;;16.58;14.70;;;;;;;4.01;100.00;95669.81;5024841;28;20025;-76
2022/02/09 15:40:43;;;;;;;15.27;13.63;;;;;;;4.04;100.00;95673.91;5020404;28;20033;-76
2022/02/09 16:23:23;;;;;;;17.63;15.68;;;;;;;3.84;100.00;95705.28;5019320;28;20029;-76
2022/02/09 16:26:02;;;;;;;17.15;15.45;;;;;;;3.82;100.00;95704.59;5008364;28;20676;-77
2022/02/09 16:44:45;;;;;;;18.20;14.55;;;;;;;3.87;100.00;95722.97;4993113;28;20113;-78
2022/02/09 16:50:03;;;;;;;18.83;16.83;;;;;;;3.83;100.00;95729.25;5013270;28;20165;-77
2022/02/09 16:52:37;;;;;;;18.60;16.60;;;;;;;3.88;100.00;95729.75;5020983;28;20040;-77
2022/02/09 17:19:37;;;;;;;10.43;9.45;;;;;;;3.97;100.00;95747.84;5021385;28;20036;-76
2022/02/09 17:22:03;;;;;;;11.50;10.40;;;;;;;3.89;100.00;95745.00;5023054;28;20018;-76
2022/02/09 17:24:29;;;;;;;11.82;10.57;;;;;;;3.91;100.00;95757.72;5014330;28;20121;-76
2022/02/09 17:26:56;;;;;;;12.25;11.05;;;;;;;3.89;100.00;95762.94;5020738;28;20121;-75
2022/02/09 17:29:30;;;;;;;13.38;12.18;;;;;;;3.89;100.00;95768.06;5019743;28;20563;-75
2022/02/09 17:32:06;;;;;;;12.27;11.20;;;;;;;3.87;100.00;95761.41;5024008;28;20041;-76
2022/02/09 17:34:43;;;;;;;11.82;10.70;;;;;;;3.92;100.00;95756.75;5021946;28;20052;-75
2022/02/09 17:53:25;;;;;;;18.70;15.30;;;;;;;3.68;100.00;95767.03;5022317;28;20028;-77
2022/02/09 17:58:21;;;;;;;16.85;15.20;;;;;;;3.70;100.00;95783.09;5018521;28;20051;-77
2022/02/09 18:00:50;;;;;;;16.23;14.75;;;;;;;3.71;100.00;95788.13;5023072;28;20294;-76
2022/02/09 18:03:16;;;;;;;18.17;16.30;;;;;;;3.77;100.00;95789.44;5014817;28;20043;-76
2022/02/09 18:05:50;;;;;;;16.85;14.57;;;;;;;3.71;100.00;95790.69;5020340;28;20446;-76
2022/02/09 18:08:24;;;;;;;17.17;15.43;;;;;;;3.73;100.00;95800.81;5021106;28;20033;-76
2022/02/09 18:25:11;;;;;;;18.88;16.65;;;;;;;3.68;100.00;95801.16;5019073;28;20029;-76
2022/02/09 18:27:42;;;;;;;19.88;17.48;;;;;;;3.58;100.00;95804.44;5023172;28;20037;-77
2022/02/09 18:29:56;;;;;;;23.15;20.83;;;;;;;3.47;100.00;95812.03;5020598;28;20068;-76
2022/02/09 18:42:52;;;;;;;22.57;20.20;;;;;;;3.36;100.00;95809.44;5020736;28;20528;-76
2022/02/09 18:59:29;;;;;;;26.85;23.85;;;;;;;3.16;100.00;95833.81;5020441;28;20524;-76
2022/02/09 19:07:38;;;;;;;28.58;23.60;;;;;;;2.97;100.00;95830.88;5021546;28;20037;-76
2022/02/09 19:16:03;;;;;;;22.50;18.80;;;;;;;2.96;100.00;95839.44;5019259;28;20492;-76
2022/02/09 19:26:19;;;;;;;19.00;17.05;;;;;;;2.81;100.00;95836.19;5010655;28;20491;-77
2022/02/09 19:31:37;;;;;;;22.83;18.75;;;;;;;2.89;100.00;95848.47;5016672;28;20788;-76
2022/02/09 19:50:30;;;;;;;16.70;14.80;;;;;;;2.67;100.00;95864.41;5023055;28;20117;-75
2022/02/09 19:53:27;;;;;;;16.38;14.57;;;;;;;2.62;100.00;95854.50;5022712;28;20034;-75
2022/02/09 19:55:58;;;;;;;15.27;13.77;;;;;;;2.61;100.00;95860.50;4996341;28;20021;-76
2022/02/09 19:58:34;;;;;;;18.33;15.52;;;;;;;2.66;100.00;95870.44;5017233;28;20029;-75
2022/02/09 20:01:00;;;;;;;15.45;13.95;;;;;;;2.58;100.00;95870.94;5026162;28;20034;-76
2022/02/09 20:03:25;;;;;;;15.55;14.02;;;;;;;2.27;100.00;95881.50;5025967;28;20929;-75
2022/02/09 20:05:51;;;;;;;17.15;15.40;;;;;;;2.11;100.00;95871.44;5025432;28;20184;-76
2022/02/09 20:08:16;;;;;;;17.92;15.68;;;;;;;2.04;100.00;95874.47;5025471;28;20041;-76
2022/02/09 20:10:42;;;;;;;18.90;15.55;;;;;;;2.02;100.00;95876.31;5008256;28;20517;-75
2022/02/09 20:13:08;;;;;;;18.13;15.93;;;;;;;1.96;100.00;95874.94;5023309;28;20030;-76
2022/02/09 20:15:34;;;;;;;21.35;17.95;;;;;;;1.69;100.00;95875.81;5008963;28;20040;-75
2022/02/09 20:17:59;;;;;;;22.05;19.10;;;;;;;1.70;100.00;95883.41;5023103;28;20040;-76
2022/02/09 20:20:27;;;;;;;18.83;16.83;;;;;;;1.78;100.00;95891.41;5008225;28;20022;-76
2022/02/09 20:22:55;;;;;;;20.33;18.02;;;;;;;1.90;100.00;95885.53;5004909;28;20036;-76
2022/02/09 20:25:21;;;;;;;18.63;15.63;;;;;;;2.00;100.00;95881.50;5023214;28;20032;-75
2022/02/09 20:27:50;;;;;;;18.00;16.10;;;;;;;1.97;100.00;95891.06;5024447;28;20402;-75
2022/02/09 20:30:19;;;;;;;17.48;15.70;;;;;;;1.90;100.00;95884.69;5005243;28;20024;-76
2022/02/09 20:32:50;;;;;;;17.70;15.55;;;;;;;1.92;100.00;95880.34;4993760;28;20028;-75
2022/02/09 20:35:17;;;;;;;20.55;16.08;;;;;;;2.00;100.00;95880.66;5022418;28;20049;-76
2022/02/09 20:37:47;;;;;;;17.67;15.60;;;;;;;2.07;100.00;95881.94;5026533;28;20810;-76
2022/02/09 20:40:21;;;;;;;16.65;14.95;;;;;;;1.98;100.00;95891.00;5020937;28;20056;-76
2022/02/09 20:42:56;;;;;;;16.50;14.82;;;;;;;1.98;100.00;95896.09;5024750;28;20136;-76
2022/02/09 20:48:28;;;;;;;20.98;17.75;;;;;;;1.92;100.00;95881.16;5020233;28;20025;-76
2022/02/09 20:50:46;;;;;;;20.38;17.23;;;;;;;1.80;100.00;95889.56;5020057;28;20049;-76
2022/02/09 20:53:14;;;;;;;28.05;20.70;;;;;;;1.81;100.00;95895.50;5006411;28;20048;-75
2022/02/09 20:55:40;;;;;;;30.83;21.65;;;;;;;1.88;100.00;95897.59;5006301;28;20150;-76
2022/02/09 20:58:05;;;;;;;27.10;21.42;;;;;;;1.91;100.00;95896.56;5020990;28;20558;-75
2022/02/09 21:03:13;;;;;;;25.58;20.85;;;;;;;1.75;100.00;95895.88;5022368;28;20060;-76
2022/02/09 21:08:26;;;;;;;24.02;20.27;;;;;;;1.64;100.00;95939.91;5022753;28;20033;-76
2022/02/09 21:26:15;;;;;;;53.40;36.00;;;;;;;1.51;100.00;95941.56;5025153;28;19917;-76
2022/02/09 21:45:23;;;;;;;53.17;37.55;;;;;;;1.31;100.00;95970.00;5022983;28;20039;-76
2022/02/09 21:52:03;;;;;;;55.58;33.95;;;;;;;1.20;100.00;95975.72;4999627;28;20124;-76
2022/02/09 22:20:19;;;;;;;41.95;28.52;;;;;;;0.90;100.00;96013.19;5021367;28;20128;-76
2022/02/09 22:27:51;;;;;;;38.63;28.20;;;;;;;0.40;100.00;96014.22;5020725;28;20177;-76
2022/02/09 22:56:47;;;;;;;40.00;27.80;;;;;;;-0.25;100.00;95991.44;5023361;28;20036;-76
2022/02/09 22:59:30;;;;;;;34.83;25.73;;;;;;;-0.29;100.00;95997.59;5021627;28;20029;-76
2022/02/09 23:02:01;;;;;;;43.10;27.45;;;;;;;-0.55;100.00;95991.31;5021783;28;20083;-77
2022/02/09 23:07:49;;;;;;;35.75;25.70;;;;;;;-0.30;100.00;95991.69;5023177;28;20049;-77
2022/02/09 23:10:14;;;;;;;40.65;27.95;;;;;;;-0.34;100.00;95980.00;5021776;28;20168;-77
2022/02/09 23:12:54;;;;;;;37.67;26.98;;;;;;;-0.49;100.00;95991.00;5023780;28;20057;-77
2022/02/09 23:15:32;;;;;;;35.63;26.30;;;;;;;-0.36;100.00;95996.28;5007583;28;20033;-76
2022/02/09 23:56:46;;;;;;;40.13;28.67;;;;;;;-0.46;100.00;95995.91;5010211;28;20034;-77
